Time;durP1;ratioP1;P1;durP2;ratioP2;P2;SDS_P1;SDS_P2;PMS_P1;PMS_P2;Temp;Humidity;BMP_temperature;BMP_pressure;BME280_temperature;BME280_humidity;BME280_pressure;Samples;Min_cycle;Max_cycle;Signal;HPM_P1;HPM_P2
2023/04/09 00:01:53;;;;;;;45.53;28.00;;;7.40;99.90;;;;;;7286997;19;20601;-77
2023/04/09 00:04:21;;;;;;;47.10;28.70;;;7.40;99.90;;;;;;7288045;19;20212;-77
2023/04/09 00:06:46;;;;;;;51.67;30.03;;;7.30;99.90;;;;;;7287246;19;20190;-77
2023/04/09 00:09:12;;;;;;;50.20;30.23;;;7.10;99.90;;;;;;7286367;19;20208;-77
2023/04/09 00:11:38;;;;;;;52.67;31.17;;;7.00;99.90;;;;;;7310661;19;20578;-78
2023/04/09 00:14:04;;;;;;;52.80;30.53;;;7.10;99.90;;;;;;7287931;19;20189;-77
2023/04/09 00:16:29;;;;;;;53.23;31.37;;;7.00;99.90;;;;;;7286151;19;20195;-77
2023/04/09 00:18:55;;;;;;;47.67;30.43;;;7.00;99.90;;;;;;7288041;19;20248;-77
2023/04/09 00:21:21;;;;;;;51.23;30.27;;;7.00;99.90;;;;;;7287308;19;20197;-77
2023/04/09 00:23:47;;;;;;;50.67;33.23;;;7.00;99.90;;;;;;7286681;19;20217;-77
2023/04/09 00:26:12;;;;;;;54.80;32.93;;;7.00;99.90;;;;;;7287720;19;20716;-76
2023/04/09 00:28:38;;;;;;;54.77;33.33;;;7.00;99.90;;;;;;7309131;19;20289;-77
2023/04/09 00:31:05;;;;;;;54.23;32.00;;;7.00;99.90;;;;;;7287195;19;20213;-77
2023/04/09 00:33:30;;;;;;;50.00;31.40;;;7.00;99.90;;;;;;7288216;19;20187;-77
2023/04/09 00:35:56;;;;;;;52.17;31.67;;;7.10;99.90;;;;;;7286123;19;20192;-78
2023/04/09 00:38:22;;;;;;;52.27;31.57;;;6.90;99.90;;;;;;7286221;19;20709;-77
2023/04/09 00:40:49;;;;;;;51.33;31.40;;;7.10;99.90;;;;;;7287381;19;20189;-77
2023/04/09 00:43:16;;;;;;;53.17;31.83;;;7.20;99.90;;;;;;7286533;19;20189;-77
2023/04/09 00:45:43;;;;;;;51.80;31.07;;;7.20;99.90;;;;;;7285854;19;20194;-77
2023/04/09 00:48:09;;;;;;;50.73;30.73;;;7.20;99.90;;;;;;7308191;19;20239;-77
2023/04/09 00:50:35;;;;;;;52.77;30.00;;;7.20;99.90;;;;;;7286853;19;20181;-77
2023/04/09 00:53:01;;;;;;;47.73;29.93;;;7.10;99.90;;;;;;7286505;19;20255;-77
2023/04/09 00:55:27;;;;;;;49.43;30.03;;;7.00;99.90;;;;;;7285481;19;20190;-77
2023/04/09 00:57:53;;;;;;;46.10;28.80;;;7.00;99.90;;;;;;7286075;19;20185;-77
2023/04/09 01:00:19;;;;;;;51.50;29.93;;;6.90;99.90;;;;;;7284630;19;20183;-76
2023/04/09 01:02:45;;;;;;;45.97;29.40;;;6.70;99.90;;;;;;7286261;19;20181;-77
2023/04/09 01:05:12;;;;;;;54.67;31.27;;;6.70;99.90;;;;;;7290572;19;20183;-78
2023/04/09 01:07:53;;;;;;;55.50;31.47;;;6.70;99.90;;;;;;7308925;19;20675;-77
2023/04/09 01:10:46;;;;;;;50.57;31.57;;;6.80;99.90;;;;;;7183416;19;2004499;-77
2023/04/09 01:13:21;;;;;;;53.13;30.90;;;6.80;99.90;;;;;;7270408;19;20211;-76
2023/04/09 01:15:58;;;;;;;54.30;31.43;;;6.90;99.90;;;;;;7285580;19;20588;-77
2023/04/09 01:18:30;;;;;;;50.97;31.60;;;7.10;99.90;;;;;;7284959;19;20188;-77
2023/04/09 01:21:04;;;;;;;51.67;32.80;;;7.20;99.90;;;;;;7284051;19;20197;-77
2023/04/09 01:23:45;;;;;;;54.03;32.60;;;7.20;99.90;;;;;;7284521;19;20193;-77
2023/04/09 01:26:42;;;;;;;53.73;31.40;;;7.20;99.90;;;;;;7262062;19;20185;-77
2023/04/09 01:29:10;;;;;;;49.83;31.10;;;7.20;99.90;;;;;;7285100;19;20628;-77
2023/04/09 01:31:38;;;;;;;53.77;32.00;;;7.20;99.90;;;;;;7284025;19;20272;-77
2023/04/09 01:34:07;;;;;;;51.17;31.07;;;7.20;99.90;;;;;;7285481;19;20203;-77
2023/04/09 01:36:34;;;;;;;53.37;31.93;;;7.20;99.90;;;;;;7284156;19;20276;-77
2023/04/09 01:39:01;;;;;;;54.70;31.83;;;7.20;99.90;;;;;;7285054;19;20183;-77
2023/04/09 01:41:29;;;;;;;52.87;30.73;;;7.10;99.90;;;;;;7285036;19;20191;-77
2023/04/09 01:43:56;;;;;;;52.10;31.10;;;7.10;99.90;;;;;;7286256;19;20212;-77
2023/04/09 01:46:24;;;;;;;54.03;31.10;;;7.00;99.90;;;;;;7287318;19;20186;-77
2023/04/09 01:48:50;;;;;;;49.37;31.30;;;7.00;99.90;;;;;;7284652;19;20196;-78
2023/04/09 01:51:16;;;;;;;51.27;30.60;;;7.00;99.90;;;;;;7284767;19;20193;-77
2023/04/09 01:53:42;;;;;;;52.23;31.30;;;7.00;99.90;;;;;;7284273;19;20184;-77
2023/04/09 01:56:08;;;;;;;51.47;30.77;;;6.90;99.90;;;;;;7305349;19;20696;-75
2023/04/09 01:58:35;;;;;;;46.70;29.93;;;6.90;99.90;;;;;;7283802;19;20209;-77
2023/04/09 02:01:13;;;;;;;51.63;30.17;;;6.80;99.90;;;;;;7284299;19;20191;-77
2023/04/09 02:03:55;;;;;;;53.60;31.07;;;6.80;99.90;;;;;;7284302;19;20176;-75
2023/04/09 02:06:43;;;;;;;53.53;30.17;;;6.90;99.90;;;;;;7183292;19;2004602;-76
2023/04/09 02:09:10;;;;;;;50.07;30.70;;;6.90;99.90;;;;;;7283662;19;20180;-77
2023/04/09 02:11:41;;;;;;;50.60;30.93;;;6.90;99.90;;;;;;7284340;19;20272;-76
2023/04/09 02:14:09;;;;;;;50.33;30.10;;;6.90;99.90;;;;;;7284088;19;20289;-76
2023/04/09 02:16:36;;;;;;;48.73;29.47;;;6.90;99.90;;;;;;7290075;19;20202;-76
2023/04/09 02:19:02;;;;;;;51.30;30.33;;;6.80;99.90;;;;;;7299442;19;20188;-76
2023/04/09 02:21:28;;;;;;;54.07;31.83;;;6.90;99.90;;;;;;7297607;19;20584;-76
2023/04/09 02:23:55;;;;;;;52.67;30.73;;;6.80;99.90;;;;;;7298415;19;20186;-76
2023/04/09 02:26:21;;;;;;;52.30;29.63;;;6.80;99.90;;;;;;7298033;19;20197;-77
2023/04/09 02:28:47;;;;;;;54.80;31.00;;;6.70;99.90;;;;;;7297085;19;20188;-77
2023/04/09 02:31:12;;;;;;;48.30;29.60;;;6.40;99.90;;;;;;7297164;19;20213;-76
2023/04/09 02:33:38;;;;;;;53.30;31.70;;;6.40;99.90;;;;;;7319557;19;20185;-76
2023/04/09 02:36:05;;;;;;;51.33;30.37;;;6.50;99.90;;;;;;7297163;19;20193;-75
2023/04/09 02:38:31;;;;;;;54.47;31.83;;;6.60;99.90;;;;;;7298647;19;20188;-77
2023/04/09 02:40:56;;;;;;;56.60;32.03;;;6.60;99.90;;;;;;7297961;19;20191;-77
2023/04/09 02:43:22;;;;;;;57.40;32.23;;;6.60;99.90;;;;;;7296189;19;20187;-77
2023/04/09 02:45:48;;;;;;;55.53;32.50;;;6.60;99.90;;;;;;7297075;19;20194;-77
2023/04/09 02:48:14;;;;;;;59.60;32.93;;;6.60;99.90;;;;;;7296420;19;20177;-77
2023/04/09 02:50:42;;;;;;;56.60;32.63;;;6.50;99.90;;;;;;7296968;19;20187;-76
2023/04/09 02:53:08;;;;;;;55.07;31.40;;;6.50;99.90;;;;;;7318113;19;20189;-77
2023/04/09 02:55:34;;;;;;;51.80;29.70;;;6.60;99.90;;;;;;7296594;19;20194;-77
2023/04/09 02:58:00;;;;;;;48.07;28.17;;;6.60;99.90;;;;;;7297682;19;20202;-77
2023/04/09 03:00:25;;;;;;;47.37;29.33;;;6.60;99.90;;;;;;7295991;19;20201;-77
2023/04/09 03:02:52;;;;;;;53.00;30.97;;;6.60;99.90;;;;;;7295453;19;20648;-77
2023/04/09 03:05:18;;;;;;;55.43;32.23;;;6.60;99.90;;;;;;7295859;19;20257;-77
2023/04/09 03:07:47;;;;;;;52.90;31.07;;;6.60;99.90;;;;;;7297224;19;20188;-77
2023/04/09 03:10:13;;;;;;;56.73;32.13;;;6.70;99.90;;;;;;7296353;19;20277;-76
2023/04/09 03:12:38;;;;;;;56.73;32.30;;;6.70;99.90;;;;;;7319058;19;20214;-77
2023/04/09 03:15:05;;;;;;;61.07;33.20;;;6.80;99.90;;;;;;7295158;19;20176;-77
2023/04/09 03:17:31;;;;;;;64.53;35.60;;;6.90;99.90;;;;;;7296532;19;20547;-78
2023/04/09 03:19:57;;;;;;;58.97;32.90;;;7.00;99.90;;;;;;7296510;19;20206;-77
2023/04/09 03:22:23;;;;;;;58.00;32.40;;;7.00;99.90;;;;;;7295020;19;20271;-77
2023/04/09 03:24:51;;;;;;;62.23;34.57;;;7.00;99.90;;;;;;7296028;19;20561;-77
2023/04/09 03:27:17;;;;;;;62.83;34.03;;;6.90;99.90;;;;;;7294807;19;20244;-76
2023/04/09 03:29:48;;;;;;;58.10;33.03;;;6.90;99.90;;;;;;7288683;19;20182;-77
2023/04/09 03:32:14;;;;;;;58.67;32.43;;;6.80;99.90;;;;;;7288106;19;20177;-77
2023/04/09 03:34:40;;;;;;;56.10;31.77;;;6.70;99.90;;;;;;7309681;19;20194;-76
2023/04/09 03:37:06;;;;;;;57.43;32.63;;;6.50;99.90;;;;;;7296607;19;20194;-77
2023/04/09 03:39:32;;;;;;;60.33;32.27;;;6.40;99.90;;;;;;7289398;19;20179;-78
2023/04/09 03:41:58;;;;;;;64.90;34.43;;;6.30;99.90;;;;;;7287202;19;20290;-78
2023/04/09 03:44:27;;;;;;;63.83;34.40;;;6.30;99.90;;;;;;7287382;19;20539;-77
2023/04/09 03:47:00;;;;;;;55.37;32.33;;;6.30;99.90;;;;;;7288808;19;20346;-77
2023/04/09 03:49:27;;;;;;;60.87;33.30;;;6.20;99.90;;;;;;7287033;19;20203;-77
2023/04/09 03:51:57;;;;;;;65.50;36.13;;;6.00;99.90;;;;;;7288662;19;20184;-78
2023/04/09 03:54:28;;;;;;;61.07;32.70;;;5.80;99.90;;;;;;7288332;19;20197;-77
2023/04/09 03:56:56;;;;;;;65.03;34.67;;;5.70;99.90;;;;;;7289117;19;20197;-76
2023/04/09 03:59:23;;;;;;;71.77;37.20;;;5.80;99.90;;;;;;7287074;19;20530;-77
2023/04/09 04:01:49;;;;;;;69.50;36.57;;;5.90;99.90;;;;;;7287295;19;20281;-77
2023/04/09 04:04:15;;;;;;;75.87;37.90;;;6.00;99.90;;;;;;7285950;19;20188;-76
2023/04/09 04:06:52;;;;;;;83.37;40.23;;;6.10;99.90;;;;;;7287737;19;20189;-77
2023/04/09 04:09:23;;;;;;;79.03;39.10;;;6.20;99.90;;;;;;7286835;19;20196;-77
2023/04/09 04:11:55;;;;;;;82.43;40.97;;;6.20;99.90;;;;;;7286550;19;20590;-77
2023/04/09 04:14:23;;;;;;;80.23;40.90;;;6.20;99.90;;;;;;7287427;19;20534;-77
2023/04/09 04:16:56;;;;;;;84.13;41.23;;;6.30;99.90;;;;;;7285967;19;20198;-77
2023/04/09 04:19:26;;;;;;;93.20;43.83;;;6.40;99.90;;;;;;7288247;19;20198;-77
2023/04/09 04:21:52;;;;;;;93.00;43.27;;;6.50;99.90;;;;;;7287789;19;20523;-77
2023/04/09 04:24:18;;;;;;;96.70;44.63;;;6.50;99.90;;;;;;7285326;19;20226;-77
2023/04/09 04:26:44;;;;;;;97.97;45.90;;;6.40;99.90;;;;;;7287272;19;20745;-77
2023/04/09 04:29:13;;;;;;;100.60;45.93;;;6.20;99.90;;;;;;7286750;19;20637;-76
2023/04/09 04:31:59;;;;;;;92.73;44.73;;;6.20;99.90;;;;;;7286446;19;20187;-77
2023/04/09 04:34:31;;;;;;;100.80;45.67;;;6.30;99.90;;;;;;7286918;19;20300;-77
2023/04/09 04:37:04;;;;;;;102.63;46.63;;;6.40;99.90;;;;;;7285613;19;20770;-77
2023/04/09 04:39:32;;;;;;;97.57;44.47;;;6.50;99.90;;;;;;7284444;19;20693;-77
2023/04/09 04:42:06;;;;;;;99.53;45.20;;;6.50;99.90;;;;;;7286773;19;20187;-77
2023/04/09 04:44:32;;;;;;;99.30;44.97;;;6.60;99.90;;;;;;7286533;19;20183;-77
2023/04/09 04:47:18;;;;;;;102.20;46.97;;;6.60;99.90;;;;;;7183077;19;2004920;-77
2023/04/09 04:49:44;;;;;;;102.13;47.60;;;6.40;99.90;;;;;;7285400;19;20191;-76
2023/04/09 04:52:10;;;;;;;92.97;44.13;;;6.30;99.90;;;;;;7307222;19;20189;-77
2023/04/09 04:54:39;;;;;;;104.43;46.77;;;6.40;99.90;;;;;;7286200;19;20217;-77
2023/04/09 04:57:06;;;;;;;93.93;45.93;;;6.40;99.90;;;;;;7287431;19;20547;-77
2023/04/09 04:59:39;;;;;;;96.07;45.63;;;6.40;99.90;;;;;;7287772;19;20653;-76
2023/04/09 05:02:07;;;;;;;99.80;46.30;;;6.50;99.90;;;;;;7285639;19;20189;-77
2023/04/09 05:04:51;;;;;;;74.47;37.93;;;6.50;99.90;;;;;;7185051;19;2004577;-77
2023/04/09 05:07:21;;;;;;;66.23;35.23;;;6.50;99.90;;;;;;7284905;19;20196;-77
2023/04/09 05:09:50;;;;;;;67.87;34.07;;;6.50;99.90;;;;;;7285054;19;20209;-77
2023/04/09 05:12:16;;;;;;;59.73;31.63;;;6.60;99.90;;;;;;7285656;19;20604;-77
2023/04/09 05:14:46;;;;;;;77.17;38.40;;;6.60;99.90;;;;;;7285665;19;20191;-77
2023/04/09 05:17:12;;;;;;;74.13;37.23;;;6.70;99.90;;;;;;7292792;19;20202;-77
2023/04/09 05:19:42;;;;;;;70.33;37.20;;;6.70;99.90;;;;;;7296448;19;20185;-75
2023/04/09 05:22:09;;;;;;;75.00;38.50;;;6.80;99.90;;;;;;7307910;19;20185;-76
2023/04/09 05:24:34;;;;;;;97.77;45.13;;;6.90;99.90;;;;;;7285203;19;20211;-76
2023/04/09 05:27:00;;;;;;;87.93;43.03;;;7.00;99.90;;;;;;7285599;19;20196;-76
2023/04/09 05:29:27;;;;;;;85.20;42.53;;;7.10;99.90;;;;;;7284041;19;20194;-76
2023/04/09 05:31:52;;;;;;;89.30;43.70;;;7.20;99.90;;;;;;7285432;19;20545;-76
2023/04/09 05:34:44;;;;;;;89.23;42.83;;;7.30;99.90;;;;;;7263178;19;20201;-76
2023/04/09 05:37:10;;;;;;;99.37;47.67;;;7.40;99.90;;;;;;7306193;19;20197;-76
2023/04/09 05:39:36;;;;;;;89.43;44.87;;;7.60;99.90;;;;;;7285951;19;20201;-76
2023/04/09 05:42:02;;;;;;;96.43;46.23;;;7.80;99.90;;;;;;7284544;19;20533;-76
2023/04/09 05:44:51;;;;;;;70.80;38.47;;;8.40;99.90;;;;;;7182755;19;2005135;-76
2023/04/09 05:47:19;;;;;;;57.07;33.10;;;9.00;99.90;;;;;;7283474;19;20195;-76
2023/04/09 05:49:57;;;;;;;54.70;30.63;;;9.70;99.90;;;;;;7283633;19;20193;-76
2023/04/09 05:52:23;;;;;;;51.60;29.97;;;10.00;99.90;;;;;;7280438;19;20565;-76
2023/04/09 05:54:50;;;;;;;61.10;34.13;;;10.40;99.90;;;;;;7285306;19;20188;-77
2023/04/09 05:57:21;;;;;;;54.73;31.47;;;10.60;99.90;;;;;;7282324;19;20472;-76
2023/04/09 05:59:55;;;;;;;60.40;35.13;;;11.00;99.90;;;;;;7284012;19;20680;-76
2023/04/09 06:02:20;;;;;;;60.47;35.83;;;11.40;99.90;;;;;;7282269;19;20201;-77
2023/04/09 06:04:46;;;;;;;57.20;34.57;;;11.70;99.90;;;;;;7284619;19;20182;-77
2023/04/09 06:07:13;;;;;;;57.57;34.67;;;12.20;99.90;;;;;;7284005;19;20269;-75
2023/04/09 06:09:39;;;;;;;57.30;34.70;;;12.20;99.90;;;;;;7305410;19;20193;-77
2023/04/09 06:12:07;;;;;;;56.53;34.60;;;12.50;99.90;;;;;;7285486;19;20183;-77
2023/04/09 06:14:32;;;;;;;53.80;33.30;;;12.60;99.90;;;;;;7283875;19;20519;-77
2023/04/09 06:16:58;;;;;;;53.67;33.57;;;12.80;99.90;;;;;;7283141;19;20222;-76
2023/04/09 06:19:24;;;;;;;53.80;33.77;;;13.00;99.90;;;;;;7285375;19;20202;-77
2023/04/09 06:21:50;;;;;;;55.53;33.50;;;13.30;99.90;;;;;;7281249;19;20258;-76
2023/04/09 06:24:15;;;;;;;57.80;34.70;;;13.50;99.90;;;;;;7282548;19;20193;-77
2023/04/09 06:26:41;;;;;;;51.40;33.20;;;13.60;99.90;;;;;;7305762;19;20189;-77
2023/04/09 06:29:07;;;;;;;55.03;34.57;;;13.30;99.90;;;;;;7283197;19;20181;-77
2023/04/09 06:31:33;;;;;;;54.77;35.30;;;13.20;99.90;;;;;;7283613;19;20211;-77
2023/04/09 06:33:59;;;;;;;57.67;35.50;;;12.80;99.90;;;;;;7283934;19;20207;-77
2023/04/09 06:36:26;;;;;;;58.93;37.17;;;12.60;99.90;;;;;;7283194;19;20202;-77
2023/04/09 06:38:52;;;;;;;56.20;36.17;;;12.40;99.90;;;;;;7283473;19;20207;-77
2023/04/09 06:41:21;;;;;;;63.53;37.60;;;12.40;99.90;;;;;;7282275;19;20195;-77
2023/04/09 06:43:47;;;;;;;58.57;36.67;;;12.10;99.90;;;;;;7283066;19;20208;-77
2023/04/09 06:46:16;;;;;;;57.53;35.27;;;12.40;99.90;;;;;;7294055;19;20198;-77
2023/04/09 06:48:43;;;;;;;53.27;33.43;;;13.40;99.90;;;;;;7304383;19;20199;-78
2023/04/09 06:51:09;;;;;;;51.77;32.73;;;15.00;99.90;;;;;;7283981;19;20185;-78
2023/04/09 06:53:36;;;;;;;50.47;31.67;;;16.70;99.90;;;;;;7282585;19;20205;-77
2023/04/09 06:56:02;;;;;;;46.70;31.53;;;17.80;99.90;;;;;;7283198;19;21734;-77
2023/04/09 06:58:28;;;;;;;53.27;32.83;;;18.60;99.90;;;;;;7283610;19;20192;-78
2023/04/09 07:00:53;;;;;;;44.40;31.67;;;18.60;99.90;;;;;;7282130;19;20204;-78
2023/04/09 07:03:19;;;;;;;45.73;31.00;;;18.90;99.90;;;;;;7286666;19;20200;-77
2023/04/09 07:05:45;;;;;;;44.83;31.03;;;20.10;99.90;;;;;;7289991;19;20705;-78
2023/04/09 07:08:11;;;;;;;43.70;30.23;;;21.10;99.90;;;;;;7311941;19;20193;-79
2023/04/09 07:10:37;;;;;;;43.27;30.27;;;22.20;99.90;;;;;;7290169;19;20766;-78
2023/04/09 07:13:02;;;;;;;44.13;30.97;;;22.90;99.90;;;;;;7289932;19;20303;-78
2023/04/09 07:15:28;;;;;;;41.97;29.70;;;23.20;99.90;;;;;;7287852;19;20651;-78
2023/04/09 07:17:56;;;;;;;41.27;30.00;;;22.50;99.90;;;;;;7288914;19;20189;-78
2023/04/09 07:20:22;;;;;;;38.53;28.63;;;22.10;99.90;;;;;;7288730;19;20204;-78
2023/04/09 07:22:48;;;;;;;42.60;30.30;;;22.00;99.90;;;;;;7287849;19;20196;-78
2023/04/09 07:25:14;;;;;;;38.43;29.03;;;22.60;99.90;;;;;;7296991;19;20188;-77
2023/04/09 07:27:41;;;;;;;39.70;29.23;;;22.10;99.90;;;;;;7311728;19;20183;-78
2023/04/09 07:30:09;;;;;;;43.30;30.67;;;22.60;99.90;;;;;;7288820;19;20188;-78
2023/04/09 07:32:35;;;;;;;42.30;29.07;;;23.30;99.90;;;;;;7286983;19;20195;-78
2023/04/09 07:35:03;;;;;;;36.50;27.67;;;24.70;99.90;;;;;;7289356;19;20560;-78
2023/04/09 07:37:30;;;;;;;41.77;29.87;;;24.50;96.70;;;;;;7287753;19;20188;-78
2023/04/09 07:39:55;;;;;;;36.97;27.97;;;24.40;97.20;;;;;;7287723;19;20184;-78
2023/04/09 07:42:21;;;;;;;36.03;26.67;;;24.70;95.20;;;;;;7287709;19;20185;-78
2023/04/09 07:44:47;;;;;;;35.27;27.73;;;24.60;94.80;;;;;;7287427;19;20240;-78
2023/04/09 07:47:13;;;;;;;38.93;29.17;;;24.40;94.50;;;;;;7296133;19;20205;-78
2023/04/09 07:49:39;;;;;;;38.73;29.50;;;23.50;95.10;;;;;;7306517;19;20659;-78
2023/04/09 07:52:05;;;;;;;38.07;27.17;;;22.90;95.70;;;;;;7287458;19;20200;-78
2023/04/09 07:54:32;;;;;;;38.07;27.50;;;22.50;96.80;;;;;;7287129;19;20333;-78
2023/04/09 07:56:58;;;;;;;38.33;27.07;;;23.80;96.20;;;;;;7288292;19;20209;-78
2023/04/09 07:59:24;;;;;;;36.10;26.60;;;24.80;94.00;;;;;;7288274;19;20196;-78
2023/04/09 08:01:50;;;;;;;36.83;27.03;;;25.10;92.20;;;;;;7286345;19;20184;-78
2023/04/09 08:04:16;;;;;;;36.33;25.47;;;25.60;92.70;;;;;;7286315;19;20272;-79
2023/04/09 08:06:45;;;;;;;35.37;25.70;;;27.10;91.00;;;;;;7310198;19;20196;-78
2023/04/09 08:09:11;;;;;;;27.77;20.35;;;28.30;86.20;;;;;;7287352;19;20189;-78
2023/04/09 08:11:36;;;;;;;28.90;20.00;;;28.40;77.90;;;;;;7285453;19;20193;-79
2023/04/09 08:14:03;;;;;;;26.38;19.92;;;28.20;77.10;;;;;;7285439;19;20213;-78
2023/04/09 08:16:29;;;;;;;28.50;20.08;;;28.80;77.70;;;;;;7286730;19;20196;-78
2023/04/09 08:18:55;;;;;;;26.25;19.10;;;29.60;74.30;;;;;;7287075;19;20188;-78
2023/04/09 08:21:22;;;;;;;26.40;20.27;;;29.50;70.20;;;;;;7286506;19;20205;-78
2023/04/09 08:23:48;;;;;;;26.20;19.77;;;29.50;68.30;;;;;;7286815;19;20193;-78
2023/04/09 08:26:14;;;;;;;28.58;21.17;;;28.80;68.30;;;;;;7293331;19;20184;-78
2023/04/09 08:28:40;;;;;;;26.50;20.02;;;27.90;69.80;;;;;;7310033;19;20637;-78
2023/04/09 08:31:08;;;;;;;26.40;19.92;;;28.70;70.70;;;;;;7286954;19;20707;-79
2023/04/09 08:33:34;;;;;;;27.58;21.65;;;29.60;67.40;;;;;;7287639;19;20186;-78
2023/04/09 08:36:00;;;;;;;27.20;20.85;;;29.80;66.10;;;;;;7285899;19;20278;-78
2023/04/09 08:38:26;;;;;;;27.75;20.58;;;29.40;65.60;;;;;;7288293;19;20193;-78
2023/04/09 08:40:51;;;;;;;27.98;20.58;;;29.60;65.50;;;;;;7287267;19;20185;-78
2023/04/09 08:43:21;;;;;;;27.10;20.55;;;28.60;66.00;;;;;;7287880;19;20185;-78
2023/04/09 08:45:47;;;;;;;26.33;20.00;;;29.10;66.80;;;;;;7286412;19;20199;-78
2023/04/09 08:48:13;;;;;;;29.75;21.08;;;29.70;65.90;;;;;;7304464;19;20193;-77
2023/04/09 08:50:39;;;;;;;28.30;21.33;;;29.60;63.50;;;;;;7298826;19;20252;-79
2023/04/09 08:53:06;;;;;;;29.40;21.30;;;30.30;63.90;;;;;;7286261;19;20217;-78
2023/04/09 08:55:36;;;;;;;26.20;19.77;;;29.50;63.30;;;;;;7286164;19;20229;-79
2023/04/09 08:58:09;;;;;;;27.88;19.90;;;30.30;64.80;;;;;;7285566;19;20224;-79
2023/04/09 09:00:35;;;;;;;27.58;20.27;;;31.10;62.70;;;;;;7283846;19;20207;-78
2023/04/09 09:03:02;;;;;;;25.35;19.33;;;31.90;62.10;;;;;;7283871;19;20537;-78
2023/04/09 09:05:35;;;;;;;26.52;19.98;;;32.40;59.60;;;;;;7286129;19;20783;-78
2023/04/09 09:08:01;;;;;;;23.80;18.45;;;33.00;59.30;;;;;;7293849;19;20574;-79
2023/04/09 09:10:41;;;;;;;24.13;19.75;;;33.60;58.20;;;;;;7293731;19;20189;-78
2023/04/09 09:13:27;;;;;;;23.65;19.20;;;33.80;57.10;;;;;;7292184;19;20647;-77
2023/04/09 09:16:12;;;;;;;25.40;20.45;;;34.40;55.60;;;;;;7188667;19;2004568;-78
2023/04/09 09:18:40;;;;;;;26.45;21.15;;;34.60;55.70;;;;;;7288756;19;20193;-79
2023/04/09 09:21:14;;;;;;;24.95;20.08;;;34.80;54.00;;;;;;7286835;19;20268;-78
2023/04/09 09:23:41;;;;;;;26.52;20.17;;;34.50;53.10;;;;;;7287470;19;20199;-78
2023/04/09 09:26:25;;;;;;;25.95;20.70;;;34.00;52.40;;;;;;7287913;19;20189;-77
2023/04/09 09:28:51;;;;;;;30.00;21.75;;;32.70;53.20;;;;;;7184351;19;2004419;-78
2023/04/09 09:31:18;;;;;;;27.40;21.98;;;30.90;55.30;;;;;;7286216;19;20243;-78
2023/04/09 09:33:45;;;;;;;28.10;21.73;;;29.30;57.20;;;;;;7290768;19;20728;-77
2023/04/09 09:36:11;;;;;;;31.42;22.33;;;28.00;58.50;;;;;;7306966;19;20184;-78
2023/04/09 09:38:57;;;;;;;28.98;21.85;;;27.80;60.10;;;;;;7285094;19;20264;-78
2023/04/09 09:41:24;;;;;;;31.33;22.63;;;28.40;59.90;;;;;;7183756;19;2004641;-77
2023/04/09 09:43:51;;;;;;;31.17;22.08;;;28.10;60.20;;;;;;7283929;19;20195;-77
2023/04/09 09:46:17;;;;;;;29.90;21.73;;;27.40;60.00;;;;;;7284944;19;20647;-77
2023/04/09 09:48:48;;;;;;;30.70;20.65;;;26.90;60.20;;;;;;7298621;19;20173;-76
2023/04/09 09:51:15;;;;;;;29.83;21.45;;;27.70;60.20;;;;;;7292337;19;20189;-77
2023/04/09 09:53:47;;;;;;;29.20;21.08;;;28.90;60.10;;;;;;7304944;19;20204;-77
2023/04/09 09:56:20;;;;;;;27.80;20.83;;;29.40;57.10;;;;;;7284927;19;20208;-76
2023/04/09 09:58:58;;;;;;;28.20;20.38;;;30.20;57.00;;;;;;7284335;19;20216;-77
2023/04/09 10:01:26;;;;;;;24.85;18.70;;;30.00;55.70;;;;;;7290120;19;20197;-77
2023/04/09 10:03:55;;;;;;;28.23;19.35;;;30.10;55.60;;;;;;7289613;19;20238;-77
2023/04/09 10:06:21;;;;;;;26.55;18.52;;;30.60;55.90;;;;;;7286943;19;20294;-77
2023/04/09 10:08:48;;;;;;;25.05;18.38;;;30.90;56.60;;;;;;7283268;19;20188;-77
2023/04/09 10:11:14;;;;;;;25.73;19.67;;;31.50;57.50;;;;;;7291061;19;20185;-77
2023/04/09 10:13:48;;;;;;;25.85;18.30;;;32.10;55.60;;;;;;7306144;19;20288;-77
2023/04/09 10:16:15;;;;;;;27.35;20.73;;;33.10;56.10;;;;;;7277767;19;20188;-77
2023/04/09 10:18:42;;;;;;;24.95;19.75;;;32.90;53.10;;;;;;7307840;19;20196;-77
2023/04/09 10:21:42;;;;;;;25.63;20.17;;;32.00;54.00;;;;;;7286148;19;20688;-77
2023/04/09 10:24:08;;;;;;;22.98;17.75;;;32.20;54.50;;;;;;7182243;19;2004881;-77
2023/04/09 10:26:39;;;;;;;23.45;18.20;;;32.00;54.20;;;;;;7285155;19;20326;-77
2023/04/09 10:29:08;;;;;;;25.95;20.38;;;32.30;54.30;;;;;;7285074;19;20178;-77
2023/04/09 10:31:49;;;;;;;24.13;19.38;;;33.30;54.60;;;;;;7284338;19;20262;-78
2023/04/09 10:34:16;;;;;;;24.48;18.27;;;34.00;51.60;;;;;;7262424;19;20195;-78
2023/04/09 10:36:43;;;;;;;22.25;17.88;;;34.20;51.30;;;;;;7304499;19;20567;-78
2023/04/09 10:39:12;;;;;;;24.48;19.48;;;34.10;52.20;;;;;;7291983;19;20181;-78
2023/04/09 10:41:40;;;;;;;26.63;20.10;;;33.20;51.10;;;;;;7291675;19;20188;-78
2023/04/09 10:44:18;;;;;;;26.65;19.35;;;32.20;52.30;;;;;;7290169;19;20677;-78
2023/04/09 10:46:44;;;;;;;25.45;19.58;;;31.20;53.20;;;;;;7289496;19;20705;-77
2023/04/09 10:49:24;;;;;;;24.70;18.70;;;29.40;54.20;;;;;;7289829;19;20252;-78
2023/04/09 10:52:12;;;;;;;24.77;18.10;;;29.40;55.90;;;;;;7185795;19;2004701;-77
2023/04/09 10:54:45;;;;;;;28.05;19.38;;;28.90;56.70;;;;;;7289352;19;20667;-78
2023/04/09 10:57:15;;;;;;;23.80;19.00;;;28.40;57.80;;;;;;7289802;19;20185;-78
2023/04/09 10:59:51;;;;;;;25.20;18.35;;;27.50;58.10;;;;;;7290212;19;20251;-78
2023/04/09 11:02:20;;;;;;;25.65;19.27;;;27.70;58.50;;;;;;7268585;19;20184;-79
2023/04/09 11:05:11;;;;;;;27.83;19.88;;;27.50;58.30;;;;;;7288780;19;20189;-78
2023/04/09 11:07:51;;;;;;;25.27;19.40;;;27.10;58.30;;;;;;7290239;19;20547;-79
2023/04/09 11:10:19;;;;;;;26.88;19.48;;;26.40;58.70;;;;;;7265763;19;20177;-78
2023/04/09 11:12:49;;;;;;;26.20;19.00;;;26.40;60.00;;;;;;7294983;19;20264;-78
2023/04/09 11:15:17;;;;;;;26.00;19.35;;;26.80;59.90;;;;;;7300067;19;20225;-78
2023/04/09 11:17:43;;;;;;;25.83;19.27;;;27.30;59.60;;;;;;7311583;19;20695;-79
2023/04/09 11:20:09;;;;;;;26.98;18.67;;;26.70;59.40;;;;;;7289334;19;20184;-79
2023/04/09 11:22:35;;;;;;;25.63;18.45;;;27.10;60.10;;;;;;7289478;19;20524;-79
2023/04/09 11:25:01;;;;;;;25.50;19.17;;;28.10;59.30;;;;;;7288773;19;20204;-79
2023/04/09 11:27:27;;;;;;;28.02;18.60;;;28.10;59.50;;;;;;7289059;19;20192;-79
2023/04/09 11:29:55;;;;;;;25.60;18.80;;;27.70;60.40;;;;;;7287547;19;20188;-79
2023/04/09 11:32:21;;;;;;;25.30;18.95;;;28.30;59.30;;;;;;7288513;19;20197;-80
2023/04/09 11:34:47;;;;;;;27.65;19.98;;;27.60;59.10;;;;;;7288146;19;20195;-78
2023/04/09 11:37:16;;;;;;;29.15;20.08;;;26.30;59.70;;;;;;7311118;19;20193;-79
2023/04/09 11:39:45;;;;;;;26.83;18.35;;;25.50;62.10;;;;;;7289259;19;20342;-79
2023/04/09 11:42:14;;;;;;;24.98;18.92;;;24.80;63.20;;;;;;7288442;19;20188;-79
2023/04/09 11:44:41;;;;;;;26.97;18.43;;;24.10;65.70;;;;;;7289385;19;20574;-79
2023/04/09 11:47:08;;;;;;;25.70;18.40;;;23.70;67.10;;;;;;7287443;19;20189;-79
2023/04/09 11:49:34;;;;;;;22.67;16.60;;;23.70;68.50;;;;;;7284277;19;20209;-79
2023/04/09 11:52:02;;;;;;;22.63;15.63;;;24.30;67.10;;;;;;7288111;19;20199;-79
2023/04/09 11:54:32;;;;;;;26.97;17.40;;;24.40;67.90;;;;;;7285772;19;20212;-79
2023/04/09 11:57:04;;;;;;;26.13;18.20;;;24.20;67.50;;;;;;7285415;19;20184;-79
2023/04/09 11:59:30;;;;;;;26.03;18.33;;;23.70;68.50;;;;;;7287006;19;20657;-80
2023/04/09 12:01:59;;;;;;;25.03;17.20;;;23.70;69.50;;;;;;7287182;19;20196;-79
2023/04/09 12:04:25;;;;;;;26.13;17.50;;;23.90;69.00;;;;;;7285249;19;20208;-79
2023/04/09 12:06:56;;;;;;;27.40;18.53;;;23.80;69.80;;;;;;7288371;19;20721;-79
2023/04/09 12:09:22;;;;;;;24.87;16.30;;;23.30;71.90;;;;;;7286445;19;20652;-79
2023/04/09 12:11:47;;;;;;;22.13;15.37;;;23.50;73.10;;;;;;7286519;19;20189;-79
2023/04/09 12:14:17;;;;;;;19.50;14.43;;;25.20;70.90;;;;;;7309596;19;20177;-79
2023/04/09 12:16:44;;;;;;;21.58;14.50;;;25.80;69.10;;;;;;7286959;19;20200;-79
2023/04/09 12:19:12;;;;;;;21.95;15.13;;;25.70;67.60;;;;;;7287667;19;20275;-79
2023/04/09 12:21:57;;;;;;;22.38;15.10;;;25.10;67.00;;;;;;7287541;19;20537;-79
2023/04/09 12:24:24;;;;;;;21.85;15.15;;;24.50;68.80;;;;;;7184808;19;2005054;-78
2023/04/09 12:26:50;;;;;;;21.08;14.00;;;24.20;70.00;;;;;;7287076;19;20177;-80
2023/04/09 12:29:20;;;;;;;19.43;14.67;;;24.00;69.90;;;;;;7285589;19;20197;-79
2023/04/09 12:31:46;;;;;;;21.40;14.53;;;23.90;71.10;;;;;;7291715;19;20197;-78
2023/04/09 12:34:13;;;;;;;19.20;14.00;;;23.90;70.50;;;;;;7309089;19;20216;-79
2023/04/09 12:36:42;;;;;;;22.40;14.00;;;23.20;70.70;;;;;;7286168;19;20256;-79
2023/04/09 12:39:09;;;;;;;20.20;13.53;;;22.90;72.90;;;;;;7287951;19;20648;-79